Swift — WDC6885 — position and weather

sailwx.info

Track history (hours):
 
Tides and Currents Weather Stations Pressure Air Temp Water Temp Dewpoint Dewpoint Depression Visibility Wind Speed Wind Dir Waves Ship Positions

Swift

Owner: Mohawk Marine, LLC, Newington, CT. More information available from US FCC via Universal Licensing System and Coast Guard Vessel Documentation Center.

Last reported at 2015-Jul-31 12:26 UTC. Time now 2015-Aug-03 08:43 UTC.
Position N 41°13' W 072°57'.

; draft 2.5 m.

Type: Towing. MMSI: 367062680.

Date/timePositionNaut miles runAvg speedWind from/ knotsBaromVisibWave heightAir tempDewpointWater temp
2015-Jul-31 12:26N 41°13' W 072°57'0 0.2
2015-Jul-31 11:34N 41°13' W 072°56'0 0.0
2015-Jul-29 18:32N 41°14' W 072°57'3 2.5
2015-Jul-29 17:13N 41°16' W 072°55'3 5.1
2015-Jul-29 16:33N 41°13' W 072°57'0 0.0
2015-Jul-29 15:19N 41°13' W 072°57'1 1.1
2015-Jul-29 14:33N 41°14' W 072°56'5 4.6
2015-Jul-29 13:33N 41°18' W 072°54'5 5.3
2015-Jul-29 12:33N 41°13' W 072°57'0 0.4
2015-Jul-29 11:34N 41°13' W 072°56'0 0.0
2015-Jul-28 18:33N 41°13' W 072°57'0 0.0
2015-Jul-28 17:33N 41°13' W 072°57'1 0.3
2015-Jul-28 15:34N 41°14' W 072°56'1 0.6
2015-Jul-28 14:33N 41°13' W 072°57'0 0.1
2015-Jul-28 13:33N 41°13' W 072°57'0 0.2
2015-Jul-28 12:32N 41°13' W 072°57'1 0.8
2015-Jul-28 11:33N 41°14' W 072°56'0 0.0
2015-Jul-27 19:06N 41°14' W 072°56'1 1.4
2015-Jul-27 18:33N 41°13' W 072°57'0 0.2
2015-Jul-27 17:23N 41°13' W 072°57'0 0.2
2015-Jul-27 16:33N 41°13' W 072°57'0 0.0
2015-Jul-27 15:33N 41°13' W 072°57'0 0.1
2015-Jul-27 14:18N 41°13' W 072°57'0 0.2
2015-Jul-27 13:18N 41°13' W 072°57'1 1.0
2015-Jul-27 12:32N 41°14' W 072°56'  
2015-Jul-24 12:16N 41°09' W 073°03'5 6.8
2015-Jul-24 11:33N 41°12' W 072°58'5 0.3
2015-Jul-23 19:10N 41°17' W 072°55'1 1.8
2015-Jul-23 18:33N 41°16' W 072°55'3 2.8
2015-Jul-23 17:34N 41°14' W 072°56'0 0.5
2015-Jul-23 16:33N 41°13' W 072°57'0 0.0
2015-Jul-23 15:30N 41°13' W 072°57'0 0.0
2015-Jul-23 12:33N 41°13' W 072°57'1 0.7
2015-Jul-23 11:33N 41°14' W 072°56'1 0.0
2015-Jul-22 18:32N 41°13' W 072°57'0 0.0
2015-Jul-22 15:25N 41°13' W 072°57'0 0.0
2015-Jul-22 13:09N 41°13' W 072°57'1 1.2
2015-Jul-22 12:28N 41°14' W 072°56'0 0.1
2015-Jul-22 11:33N 41°14' W 072°56'0 0.0
2015-Jul-21 19:32N 41°14' W 072°56'0 0.1
2015-Jul-21 18:33N 41°14' W 072°56'1 0.2
2015-Jul-21 15:08N 41°13' W 072°57'0 0.2
2015-Jul-21 13:33N 41°13' W 072°56'0 0.5
2015-Jul-21 12:34N 41°14' W 072°56'  
Track history (hours):
 
Tides and Currents Weather Stations Pressure Air Temp Water Temp Dewpoint Dewpoint Depression Visibility Wind Speed Wind Dir Waves Ship Positions

Swift

Owner: Mohawk Marine, LLC, Newington, CT. More information available from US FCC via Universal Licensing System and Coast Guard Vessel Documentation Center.

Last reported at 2015-Jul-31 12:26 UTC. Time now 2015-Aug-03 08:43 UTC.
Position N 41°13' W 072°57'.

; draft 2.5 m.

Type: Towing. MMSI: 367062680.

Date/timePositionNaut miles runAvg speedWind from/ knotsBaromVisibWave heightAir tempDewpointWater temp
2015-Jul-31 12:26N 41°13' W 072°57'0 0.2
2015-Jul-31 11:34N 41°13' W 072°56'0 0.0
2015-Jul-29 18:32N 41°14' W 072°57'3 2.5
2015-Jul-29 17:13N 41°16' W 072°55'3 5.1
2015-Jul-29 16:33N 41°13' W 072°57'0 0.0
2015-Jul-29 15:19N 41°13' W 072°57'1 1.1
2015-Jul-29 14:33N 41°14' W 072°56'5 4.6
2015-Jul-29 13:33N 41°18' W 072°54'5 5.3
2015-Jul-29 12:33N 41°13' W 072°57'0 0.4
2015-Jul-29 11:34N 41°13' W 072°56'0 0.0
2015-Jul-28 18:33N 41°13' W 072°57'0 0.0
2015-Jul-28 17:33N 41°13' W 072°57'1 0.3
2015-Jul-28 15:34N 41°14' W 072°56'1 0.6
2015-Jul-28 14:33N 41°13' W 072°57'0 0.1
2015-Jul-28 13:33N 41°13' W 072°57'0 0.2
2015-Jul-28 12:32N 41°13' W 072°57'1 0.8
2015-Jul-28 11:33N 41°14' W 072°56'0 0.0
2015-Jul-27 19:06N 41°14' W 072°56'1 1.4
2015-Jul-27 18:33N 41°13' W 072°57'0 0.2
2015-Jul-27 17:23N 41°13' W 072°57'0 0.2
2015-Jul-27 16:33N 41°13' W 072°57'0 0.0
2015-Jul-27 15:33N 41°13' W 072°57'0 0.1
2015-Jul-27 14:18N 41°13' W 072°57'0 0.2
2015-Jul-27 13:18N 41°13' W 072°57'1 1.0
2015-Jul-27 12:32N 41°14' W 072°56'  
2015-Jul-24 12:16N 41°09' W 073°03'5 6.8
2015-Jul-24 11:33N 41°12' W 072°58'5 0.3
2015-Jul-23 19:10N 41°17' W 072°55'1 1.8
2015-Jul-23 18:33N 41°16' W 072°55'3 2.8
2015-Jul-23 17:34N 41°14' W 072°56'0 0.5
2015-Jul-23 16:33N 41°13' W 072°57'0 0.0
2015-Jul-23 15:30N 41°13' W 072°57'0 0.0
2015-Jul-23 12:33N 41°13' W 072°57'1 0.7
2015-Jul-23 11:33N 41°14' W 072°56'1 0.0
2015-Jul-22 18:32N 41°13' W 072°57'0 0.0
2015-Jul-22 15:25N 41°13' W 072°57'0 0.0
2015-Jul-22 13:09N 41°13' W 072°57'1 1.2
2015-Jul-22 12:28N 41°14' W 072°56'0 0.1
2015-Jul-22 11:33N 41°14' W 072°56'0 0.0
2015-Jul-21 19:32N 41°14' W 072°56'0 0.1
2015-Jul-21 18:33N 41°14' W 072°56'1 0.2
2015-Jul-21 15:08N 41°13' W 072°57'0 0.2
2015-Jul-21 13:33N 41°13' W 072°56'0 0.5
2015-Jul-21 12:34N 41°14' W 072°56'  

Dump ship's entire track history